createdAt,value
2023-03-29T00:02:03.122Z,5.52
2023-03-29T00:04:29.851Z,5.52
2023-03-29T00:06:58.146Z,5.53
2023-03-29T00:09:24.788Z,5.51
2023-03-29T00:11:51.319Z,5.62
2023-03-29T00:14:17.969Z,5.65
2023-03-29T00:16:44.583Z,5.56
2023-03-29T00:19:11.274Z,5.56
2023-03-29T00:21:37.858Z,5.36
2023-03-29T00:24:06.330Z,5.51
2023-03-29T00:26:32.903Z,5.49
2023-03-29T00:28:59.693Z,5.57
2023-03-29T00:31:26.358Z,5.57
2023-03-29T00:33:53.129Z,5.74
2023-03-29T00:36:19.696Z,5.62
2023-03-29T00:38:46.364Z,5.59
2023-03-29T00:41:14.709Z,5.65
2023-03-29T00:43:58.868Z,5.66
2023-03-29T00:46:27.257Z,5.66
2023-03-29T00:48:57.837Z,5.59
2023-03-29T00:51:29.818Z,5.69
2023-03-29T00:53:58.520Z,5.57
2023-03-29T00:56:29.735Z,5.53
2023-03-29T00:59:00.570Z,5.52
2023-03-29T01:01:31.966Z,5.51
2023-03-29T01:04:03.476Z,5.54
2023-03-29T01:06:34.356Z,5.55
2023-03-29T01:09:04.205Z,5.43
2023-03-29T01:11:37.718Z,5.51
2023-03-29T01:14:05.315Z,5.50
2023-03-29T01:16:35.119Z,5.56
2023-03-29T01:19:01.907Z,5.50
2023-03-29T01:21:32.973Z,5.47
2023-03-29T01:24:20.468Z,5.57
2023-03-29T01:26:55.370Z,5.47
2023-03-29T01:29:27.642Z,5.43
2023-03-29T01:31:58.151Z,5.44
2023-03-29T01:34:33.052Z,5.42
2023-03-29T01:37:05.611Z,5.30
2023-03-29T01:39:32.414Z,5.47
2023-03-29T01:42:14.156Z,5.56
2023-03-29T01:44:48.610Z,5.69
2023-03-29T01:47:25.957Z,5.51
2023-03-29T01:50:00.671Z,5.26
2023-03-29T01:52:34.493Z,5.50
2023-03-29T01:55:06.880Z,5.47
2023-03-29T01:57:36.950Z,5.49
2023-03-29T02:00:06.533Z,5.38
2023-03-29T02:02:40.739Z,5.64
2023-03-29T02:05:09.509Z,5.63
2023-03-29T02:07:38.560Z,5.60
2023-03-29T02:10:08.104Z,5.69
2023-03-29T02:12:36.847Z,5.63
2023-03-29T02:15:10.275Z,5.68
2023-03-29T02:17:36.949Z,5.79
2023-03-29T02:20:08.410Z,5.67
2023-03-29T02:22:41.224Z,5.68
2023-03-29T02:25:08.792Z,5.68
2023-03-29T02:27:37.329Z,5.62
2023-03-29T02:30:06.821Z,5.68
2023-03-29T02:32:39.927Z,5.64
2023-03-29T02:35:10.740Z,5.71
2023-03-29T02:37:38.258Z,5.75
2023-03-29T02:40:05.731Z,5.61
2023-03-29T02:42:32.586Z,5.76
2023-03-29T02:45:00.914Z,5.60
2023-03-29T02:47:32.976Z,5.78
2023-03-29T02:50:00.339Z,5.77
2023-03-29T02:52:33.911Z,5.78
2023-03-29T02:55:02.177Z,5.84
2023-03-29T02:57:30.137Z,5.68
2023-03-29T02:59:59.054Z,5.77
2023-03-29T03:02:25.962Z,5.84
2023-03-29T03:04:55.332Z,5.84
2023-03-29T03:07:22.074Z,5.85
2023-03-29T03:09:49.083Z,5.91
2023-03-29T03:12:15.881Z,5.80
2023-03-29T03:14:42.846Z,5.96
2023-03-29T03:17:09.583Z,5.95
2023-03-29T03:19:36.191Z,5.95
2023-03-29T03:22:05.039Z,5.92
2023-03-29T03:24:31.685Z,5.90
2023-03-29T03:26:58.612Z,5.89
2023-03-29T03:29:25.956Z,5.88
2023-03-29T03:31:58.587Z,5.82
2023-03-29T03:34:51.045Z,5.90
2023-03-29T03:37:18.998Z,6.00
2023-03-29T03:39:45.887Z,5.65
2023-03-29T03:42:12.575Z,5.91
2023-03-29T03:44:42.410Z,5.82
2023-03-29T03:47:24.768Z,5.76
2023-03-29T03:49:53.407Z,5.94
2023-03-29T03:52:25.217Z,5.92
2023-03-29T03:54:52.849Z,5.91
2023-03-29T03:57:41.747Z,5.90
2023-03-29T04:00:13.732Z,5.70
2023-03-29T04:02:41.655Z,5.97
2023-03-29T04:05:08.577Z,5.98
2023-03-29T04:07:40.639Z,5.94
2023-03-29T04:10:27.600Z,5.84
2023-03-29T04:13:17.323Z,5.94
2023-03-29T04:16:02.848Z,6.01
2023-03-29T04:18:30.826Z,6.09
2023-03-29T04:20:59.213Z,5.89
2023-03-29T04:23:29.201Z,5.50
2023-03-29T04:25:56.177Z,6.07
2023-03-29T04:28:45.994Z,6.09
2023-03-29T04:31:17.344Z,5.78
2023-03-29T04:34:02.856Z,6.12
2023-03-29T04:36:29.953Z,6.06
2023-03-29T04:38:58.381Z,6.08
2023-03-29T04:41:26.604Z,6.15
2023-03-29T04:44:03.521Z,6.18
2023-03-29T04:46:31.525Z,6.19
2023-03-29T04:49:27.976Z,6.20
2023-03-29T04:51:55.092Z,6.21
2023-03-29T04:54:27.564Z,6.21
2023-03-29T04:57:20.271Z,6.22
2023-03-29T05:00:01.944Z,6.22
2023-03-29T05:02:48.546Z,6.24
2023-03-29T05:05:15.717Z,6.28
2023-03-29T05:07:44.057Z,6.21
2023-03-29T05:10:12.713Z,6.30
2023-03-29T05:12:39.540Z,6.34
2023-03-29T05:15:07.706Z,6.33
2023-03-29T05:17:34.571Z,6.35
2023-03-29T05:20:08.696Z,6.37
2023-03-29T05:22:35.673Z,6.39
2023-03-29T05:25:02.274Z,6.40
2023-03-29T05:27:31.069Z,6.45
2023-03-29T05:30:08.475Z,6.40
2023-03-29T05:32:55.373Z,6.49
2023-03-29T05:35:24.766Z,6.46
2023-03-29T05:37:52.249Z,6.48
2023-03-29T05:40:19.208Z,6.47
2023-03-29T05:43:16.697Z,6.33
2023-03-29T05:45:43.594Z,6.49
2023-03-29T05:48:10.423Z,6.43
2023-03-29T05:50:40.584Z,6.56
2023-03-29T05:53:07.338Z,6.59
2023-03-29T05:55:33.980Z,6.48
2023-03-29T05:58:00.573Z,6.65
2023-03-29T06:00:32.216Z,6.58
2023-03-29T06:05:48.378Z,6.76
2023-03-29T06:08:16.642Z,6.83
2023-03-29T06:10:58.002Z,6.90
2023-03-29T06:13:47.229Z,6.79
2023-03-29T06:16:15.255Z,6.92
2023-03-29T06:18:42.038Z,6.93
2023-03-29T06:21:08.776Z,6.93
2023-03-29T06:23:35.592Z,7.07
2023-03-29T06:26:02.499Z,7.09
2023-03-29T06:28:29.388Z,7.08
2023-03-29T06:30:56.880Z,7.11
2023-03-29T06:33:28.094Z,7.15
2023-03-29T06:36:04.300Z,7.18
2023-03-29T06:38:31.254Z,7.25
2023-03-29T06:41:09.519Z,7.30
2023-03-29T06:43:51.687Z,7.40
2023-03-29T06:46:23.719Z,7.40
2023-03-29T06:48:56.925Z,7.42
2023-03-29T06:51:31.603Z,7.49
2023-03-29T06:53:58.682Z,7.49
2023-03-29T06:56:25.484Z,7.61
2023-03-29T06:59:08.895Z,7.76
2023-03-29T07:01:43.563Z,7.67
2023-03-29T07:04:24.718Z,7.85
2023-03-29T07:07:14.880Z,8.00
2023-03-29T07:09:41.486Z,8.00
2023-03-29T07:12:42.898Z,8.05
2023-03-29T07:15:10.207Z,8.07
2023-03-29T07:17:55.670Z,8.13
2023-03-29T07:20:24.013Z,8.14
2023-03-29T07:23:01.952Z,8.18
2023-03-29T07:25:28.584Z,8.34
2023-03-29T07:27:55.140Z,8.41
2023-03-29T07:30:23.830Z,8.24
2023-03-29T07:32:51.467Z,8.36
2023-03-29T07:35:31.987Z,8.35
2023-03-29T07:37:58.834Z,8.38
2023-03-29T07:40:26.681Z,8.40
2023-03-29T07:42:57.188Z,8.31
2023-03-29T07:45:28.373Z,8.24
2023-03-29T07:48:02.494Z,8.29
2023-03-29T07:50:46.744Z,8.32
2023-03-29T07:53:14.144Z,8.27
2023-03-29T07:55:41.133Z,8.42
2023-03-29T07:58:30.974Z,8.44
2023-03-29T08:00:59.081Z,8.61
2023-03-29T08:03:44.041Z,8.72
2023-03-29T08:06:12.694Z,8.62
2023-03-29T08:08:39.323Z,8.83
2023-03-29T08:11:11.036Z,8.90
2023-03-29T08:13:55.355Z,9.10
2023-03-29T08:16:33.727Z,9.08
2023-03-29T08:19:11.332Z,9.03
2023-03-29T08:21:58.370Z,9.27
2023-03-29T08:24:29.137Z,9.36
2023-03-29T08:27:00.389Z,9.38
2023-03-29T08:29:27.148Z,9.41
2023-03-29T08:31:57.066Z,9.43
2023-03-29T08:34:24.093Z,9.53
2023-03-29T08:37:27.467Z,9.70
2023-03-29T08:39:56.350Z,9.78
2023-03-29T08:43:00.963Z,9.91
2023-03-29T08:45:41.380Z,10.01
2023-03-29T08:48:22.079Z,10.09
2023-03-29T08:50:52.824Z,10.14
2023-03-29T08:53:27.539Z,10.21
2023-03-29T08:56:15.650Z,10.33
2023-03-29T08:58:43.274Z,10.46
2023-03-29T09:01:10.054Z,10.63
2023-03-29T09:04:00.297Z,10.43
2023-03-29T09:06:40.803Z,10.72
2023-03-29T09:09:31.825Z,10.82
2023-03-29T09:12:12.280Z,10.64
2023-03-29T09:14:59.389Z,10.72
2023-03-29T09:17:39.010Z,10.75
2023-03-29T09:20:21.539Z,10.94
2023-03-29T09:22:55.458Z,10.90
2023-03-29T09:25:36.232Z,10.93
2023-03-29T09:28:17.323Z,11.13
2023-03-29T09:30:57.444Z,11.03
2023-03-29T09:33:26.492Z,11.17
2023-03-29T09:36:17.995Z,11.18
2023-03-29T09:38:49.064Z,11.33
2023-03-29T09:41:22.861Z,11.46
2023-03-29T09:43:51.704Z,11.60
2023-03-29T09:46:26.696Z,11.67
2023-03-29T09:48:55.522Z,11.54
2023-03-29T09:51:26.656Z,11.83
2023-03-29T09:53:55.131Z,11.94
2023-03-29T09:56:37.010Z,12.01
2023-03-29T09:59:13.542Z,12.00
2023-03-29T10:01:42.759Z,12.03
2023-03-29T10:04:11.225Z,12.01
2023-03-29T10:06:44.253Z,11.97
2023-03-29T10:09:16.090Z,12.00
2023-03-29T10:11:51.377Z,11.98
2023-03-29T10:14:19.904Z,12.08
2023-03-29T10:16:47.157Z,12.00
2023-03-29T10:19:22.554Z,12.32
2023-03-29T10:21:49.393Z,12.33
2023-03-29T10:24:19.676Z,12.39
2023-03-29T10:26:49.594Z,12.46
2023-03-29T10:29:16.288Z,12.48
2023-03-29T10:31:43.236Z,12.60
2023-03-29T10:34:13.847Z,12.70
2023-03-29T10:36:41.997Z,12.55
2023-03-29T10:39:13.145Z,12.81
2023-03-29T10:41:40.077Z,12.85
2023-03-29T10:44:26.125Z,12.85
2023-03-29T10:46:52.808Z,12.93
2023-03-29T10:49:22.061Z,13.02
2023-03-29T10:51:50.173Z,13.07
2023-03-29T10:54:20.071Z,13.20
2023-03-29T10:56:52.545Z,13.32
2023-03-29T10:59:32.509Z,13.44
2023-03-29T11:02:28.356Z,13.54
2023-03-29T11:05:05.748Z,13.59
2023-03-29T11:07:34.301Z,13.67
2023-03-29T11:10:23.025Z,13.79
2023-03-29T11:12:56.366Z,13.93
2023-03-29T11:15:38.493Z,14.02
2023-03-29T11:18:23.470Z,14.13
2023-03-29T11:20:55.744Z,14.26
2023-03-29T11:23:34.420Z,14.42
2023-03-29T11:26:10.727Z,14.49
2023-03-29T11:28:44.873Z,14.69
2023-03-29T11:31:24.491Z,14.73
2023-03-29T11:34:01.832Z,14.78
2023-03-29T11:36:37.563Z,14.87
2023-03-29T11:39:15.690Z,15.05
2023-03-29T11:41:44.813Z,15.25
2023-03-29T11:44:17.037Z,15.35
2023-03-29T11:46:49.798Z,15.41
2023-03-29T11:49:19.185Z,15.44
2023-03-29T11:51:53.365Z,15.39
2023-03-29T11:54:25.315Z,15.67
2023-03-29T11:56:57.133Z,15.76
2023-03-29T11:59:30.026Z,15.94
2023-03-29T12:02:05.124Z,15.84
2023-03-29T12:04:37.797Z,16.03
2023-03-29T12:07:12.054Z,16.03
2023-03-29T12:09:43.096Z,16.02
2023-03-29T12:12:14.915Z,16.19
2023-03-29T12:14:59.514Z,16.31
2023-03-29T12:17:32.199Z,16.27
2023-03-29T12:20:11.928Z,16.34
2023-03-29T12:22:45.318Z,16.23
2023-03-29T12:25:18.220Z,16.50
2023-03-29T12:27:57.003Z,16.62
2023-03-29T12:30:44.433Z,16.73
2023-03-29T12:33:40.775Z,16.91
2023-03-29T12:37:02.140Z,16.97
2023-03-29T12:39:48.201Z,17.00
2023-03-29T12:42:45.961Z,17.20
2023-03-29T12:45:55.051Z,17.37
2023-03-29T12:48:24.584Z,17.55
2023-03-29T12:50:54.378Z,17.49
2023-03-29T12:53:24.141Z,17.38
2023-03-29T12:56:16.246Z,17.39
2023-03-29T12:58:53.231Z,16.91
2023-03-29T13:01:29.205Z,17.32
2023-03-29T13:04:12.391Z,17.24
2023-03-29T13:06:56.190Z,17.40
2023-03-29T13:09:24.280Z,17.31
2023-03-29T13:11:53.595Z,17.39
2023-03-29T13:14:23.890Z,17.60
2023-03-29T13:16:50.666Z,17.69
2023-03-29T13:19:28.418Z,17.90
2023-03-29T13:22:08.044Z,18.01
2023-03-29T13:24:49.223Z,18.06
2023-03-29T13:27:27.362Z,18.24
2023-03-29T13:30:13.713Z,18.18
2023-03-29T13:32:50.532Z,18.07
2023-03-29T13:35:28.401Z,18.08
2023-03-29T13:38:05.131Z,18.31
2023-03-29T13:40:42.141Z,18.37
2023-03-29T13:43:10.810Z,18.37
2023-03-29T13:45:37.361Z,18.23
2023-03-29T13:48:06.400Z,18.20
2023-03-29T13:50:38.640Z,18.32
2023-03-29T13:53:13.040Z,18.15
2023-03-29T13:55:47.061Z,17.99
2023-03-29T13:58:24.964Z,18.15
2023-03-29T14:00:59.183Z,17.98
2023-03-29T14:03:26.743Z,18.01
2023-03-29T14:05:57.969Z,17.96
2023-03-29T14:08:30.034Z,17.74
2023-03-29T14:11:00.688Z,17.43
2023-03-29T14:13:29.122Z,17.40
2023-03-29T14:15:59.707Z,17.25
2023-03-29T14:18:28.960Z,17.17
2023-03-29T14:20:55.686Z,17.14
2023-03-29T14:23:24.535Z,17.20
2023-03-29T14:25:52.572Z,17.28
2023-03-29T14:28:20.489Z,17.23
2023-03-29T14:30:47.196Z,17.34
2023-03-29T14:33:14.183Z,17.16
2023-03-29T14:35:40.892Z,17.10
2023-03-29T14:38:12.467Z,17.09
2023-03-29T14:40:38.985Z,17.17
2023-03-29T14:43:08.083Z,17.12
2023-03-29T14:45:35.756Z,17.10
2023-03-29T14:48:02.792Z,17.06
2023-03-29T14:50:30.353Z,17.04
2023-03-29T14:52:57.864Z,16.99
2023-03-29T14:55:24.910Z,16.92
2023-03-29T14:57:54.278Z,17.06
2023-03-29T15:00:27.040Z,17.02
2023-03-29T15:02:55.915Z,16.94
2023-03-29T15:05:26.212Z,17.04
2023-03-29T15:07:53.750Z,17.02
2023-03-29T15:10:20.490Z,17.03
2023-03-29T15:12:48.497Z,16.75
2023-03-29T15:15:15.496Z,16.85
2023-03-29T15:17:51.107Z,16.76
2023-03-29T15:20:22.782Z,16.77
2023-03-29T15:22:55.753Z,16.91
2023-03-29T15:25:22.432Z,16.86
2023-03-29T15:27:53.745Z,16.96
2023-03-29T15:30:28.287Z,16.88
2023-03-29T15:32:56.653Z,16.83
2023-03-29T15:35:24.738Z,16.92
2023-03-29T15:37:53.176Z,16.92
2023-03-29T15:40:25.723Z,17.03
2023-03-29T15:42:53.921Z,16.91
2023-03-29T15:45:22.487Z,16.86
2023-03-29T15:47:49.143Z,16.81
2023-03-29T15:50:17.225Z,16.73
2023-03-29T15:52:43.798Z,16.70
2023-03-29T15:55:10.377Z,16.92
2023-03-29T15:57:37.208Z,16.89
2023-03-29T16:00:05.958Z,16.86
2023-03-29T16:02:39.407Z,17.03
2023-03-29T16:05:06.421Z,17.01
2023-03-29T16:07:34.442Z,17.03
2023-03-29T16:10:01.107Z,17.11
2023-03-29T16:12:27.638Z,16.99
2023-03-29T16:14:54.269Z,16.77
2023-03-29T16:17:20.790Z,16.77
2023-03-29T16:19:47.484Z,16.86
2023-03-29T16:22:14.055Z,16.80
2023-03-29T16:24:42.124Z,16.70
2023-03-29T16:27:09.016Z,16.48
2023-03-29T16:29:35.635Z,16.74
2023-03-29T16:32:03.445Z,16.56
2023-03-29T16:34:31.981Z,16.58
2023-03-29T16:36:58.498Z,16.53
2023-03-29T16:39:25.341Z,16.55
2023-03-29T16:41:53.229Z,16.52
2023-03-29T16:44:23.211Z,16.46
2023-03-29T16:46:51.210Z,16.27
2023-03-29T16:49:17.725Z,16.36
2023-03-29T16:51:45.515Z,16.36
2023-03-29T16:54:12.188Z,16.30
2023-03-29T16:56:38.913Z,16.27
2023-03-29T16:59:06.836Z,16.26
2023-03-29T17:01:33.512Z,16.10
2023-03-29T17:04:00.546Z,16.21
2023-03-29T17:06:27.305Z,16.15
2023-03-29T17:08:53.904Z,16.17
2023-03-29T17:11:20.490Z,16.11
2023-03-29T17:13:47.103Z,16.02
2023-03-29T17:16:15.323Z,16.13
2023-03-29T17:18:41.987Z,15.89
2023-03-29T17:21:08.699Z,16.03
2023-03-29T17:23:35.289Z,15.97
2023-03-29T17:26:02.143Z,15.88
2023-03-29T17:28:28.878Z,15.85
2023-03-29T17:30:55.560Z,15.85
2023-03-29T17:33:23.501Z,15.83
2023-03-29T17:35:50.142Z,15.82
2023-03-29T17:38:16.986Z,15.73
2023-03-29T17:40:43.541Z,15.63
2023-03-29T17:43:10.056Z,15.53
2023-03-29T17:45:36.669Z,15.48
2023-03-29T17:48:06.039Z,15.46
2023-03-29T17:50:34.424Z,15.36
2023-03-29T17:53:00.907Z,15.30
2023-03-29T17:55:27.486Z,15.22
2023-03-29T17:57:53.991Z,15.11
2023-03-29T18:00:21.281Z,15.09
2023-03-29T18:02:47.899Z,14.96
2023-03-29T18:05:14.567Z,14.90
2023-03-29T18:07:42.453Z,14.82
2023-03-29T18:10:09.929Z,14.71
2023-03-29T18:12:36.502Z,14.66
2023-03-29T18:15:03.622Z,14.58
2023-03-29T18:17:30.160Z,14.54
2023-03-29T18:19:57.058Z,14.45
2023-03-29T18:22:23.571Z,14.36
2023-03-29T18:24:51.532Z,14.30
2023-03-29T18:27:18.406Z,14.24
2023-03-29T18:29:45.055Z,14.17
2023-03-29T18:32:12.179Z,14.12
2023-03-29T18:34:38.824Z,13.93
2023-03-29T18:37:05.406Z,14.04
2023-03-29T18:39:32.016Z,13.96
2023-03-29T18:41:59.910Z,13.93
2023-03-29T18:44:26.509Z,13.84
2023-03-29T18:46:53.055Z,13.74
2023-03-29T18:49:19.921Z,13.68
2023-03-29T18:51:46.512Z,13.61
2023-03-29T18:54:13.127Z,13.55
2023-03-29T18:56:39.650Z,13.49
2023-03-29T18:59:07.645Z,13.32
2023-03-29T19:01:34.308Z,13.41
2023-03-29T19:04:00.996Z,13.34
2023-03-29T19:06:27.711Z,13.28
2023-03-29T19:08:54.348Z,13.21
2023-03-29T19:11:20.901Z,13.14
2023-03-29T19:13:47.492Z,13.10
2023-03-29T19:16:15.532Z,13.05
2023-03-29T19:18:42.343Z,12.95
2023-03-29T19:21:09.373Z,12.94
2023-03-29T19:23:35.971Z,12.90
2023-03-29T19:26:04.380Z,12.91
2023-03-29T19:28:31.350Z,12.77
2023-03-29T19:30:59.415Z,12.71
2023-03-29T19:33:27.896Z,12.57
2023-03-29T19:35:54.533Z,12.66
2023-03-29T19:38:21.566Z,12.67
2023-03-29T19:40:49.644Z,12.63
2023-03-29T19:43:16.284Z,12.60
2023-03-29T19:45:42.808Z,12.55
2023-03-29T19:50:41.318Z,12.38
2023-03-29T19:53:08.166Z,12.37
2023-03-29T19:55:35.224Z,12.38
2023-03-29T19:58:01.763Z,12.35
2023-03-29T20:00:28.525Z,12.30
2023-03-29T20:02:56.216Z,12.21
2023-03-29T20:05:23.222Z,12.13
2023-03-29T20:07:51.150Z,12.14
2023-03-29T20:10:18.031Z,12.12
2023-03-29T20:12:44.585Z,12.12
2023-03-29T20:15:11.488Z,12.02
2023-03-29T20:17:38.095Z,12.04
2023-03-29T20:20:05.886Z,11.97
2023-03-29T20:22:32.406Z,11.96
2023-03-29T20:25:00.305Z,11.96
2023-03-29T20:27:26.854Z,11.93
2023-03-29T20:29:53.370Z,11.84
2023-03-29T20:32:20.227Z,11.81
2023-03-29T20:34:46.825Z,11.74
2023-03-29T20:37:13.405Z,11.72
2023-03-29T20:39:40.244Z,11.67
2023-03-29T20:42:08.147Z,11.64
2023-03-29T20:44:35.482Z,11.57
2023-03-29T20:47:02.102Z,11.49
2023-03-29T20:49:29.180Z,11.41
2023-03-29T20:51:55.716Z,11.42
2023-03-29T20:54:22.236Z,11.22
2023-03-29T20:56:48.876Z,11.34
2023-03-29T20:59:17.086Z,11.29
2023-03-29T21:01:43.744Z,11.28
2023-03-29T21:04:10.374Z,11.27
2023-03-29T21:06:37.109Z,11.10
2023-03-29T21:09:03.907Z,11.11
2023-03-29T21:11:30.494Z,10.95
2023-03-29T21:13:57.034Z,10.97
2023-03-29T21:16:25.174Z,11.02
2023-03-29T21:18:52.913Z,10.95
2023-03-29T21:21:19.445Z,10.98
2023-03-29T21:23:45.964Z,10.83
2023-03-29T21:26:12.677Z,10.72
2023-03-29T21:28:39.364Z,10.53
2023-03-29T21:31:07.217Z,10.68
2023-03-29T21:33:35.988Z,10.65
2023-03-29T21:36:02.650Z,10.58
2023-03-29T21:38:29.249Z,10.52
2023-03-29T21:40:55.784Z,10.45
2023-03-29T21:43:22.318Z,10.42
2023-03-29T21:45:49.310Z,10.17
2023-03-29T21:48:15.909Z,10.38
2023-03-29T21:50:43.809Z,10.37
2023-03-29T21:53:10.432Z,10.30
2023-03-29T21:55:37.137Z,10.28
2023-03-29T21:58:03.677Z,10.05
2023-03-29T22:00:30.308Z,10.20
2023-03-29T22:02:57.160Z,10.19
2023-03-29T22:05:23.785Z,10.21
2023-03-29T22:07:51.692Z,10.18
2023-03-29T22:10:19.999Z,10.19
2023-03-29T22:12:46.564Z,10.18
2023-03-29T22:15:13.162Z,10.10
2023-03-29T22:17:39.891Z,9.94
2023-03-29T22:20:07.237Z,10.11
2023-03-29T22:22:33.981Z,10.06
2023-03-29T22:25:01.884Z,10.06
2023-03-29T22:27:28.400Z,10.07
2023-03-29T22:29:54.921Z,10.03
2023-03-29T22:32:21.556Z,10.01
2023-03-29T22:34:48.086Z,10.00
2023-03-29T22:37:14.609Z,9.97
2023-03-29T22:39:41.230Z,9.96
2023-03-29T22:42:09.130Z,9.86
2023-03-29T22:44:35.831Z,9.79
2023-03-29T22:47:02.380Z,9.77
2023-03-29T22:49:28.897Z,9.69
2023-03-29T22:51:55.616Z,9.81
2023-03-29T22:54:22.166Z,9.74
2023-03-29T22:56:48.815Z,9.69
2023-03-29T22:59:16.751Z,9.65
2023-03-29T23:01:43.531Z,9.72
2023-03-29T23:04:10.403Z,9.68
2023-03-29T23:06:37.236Z,9.71
2023-03-29T23:09:04.212Z,9.63
2023-03-29T23:11:30.927Z,9.57
2023-03-29T23:13:57.453Z,9.57
2023-03-29T23:16:25.490Z,9.57
2023-03-29T23:18:52.209Z,9.63
2023-03-29T23:21:19.213Z,9.56
2023-03-29T23:23:45.762Z,9.49
2023-03-29T23:26:12.311Z,9.46
2023-03-29T23:28:38.869Z,9.49
2023-03-29T23:31:07.664Z,9.47
2023-03-29T23:33:37.460Z,9.47
2023-03-29T23:36:05.993Z,9.56
2023-03-29T23:38:35.158Z,9.51
2023-03-29T23:41:03.664Z,9.49
2023-03-29T23:43:32.468Z,9.45
2023-03-29T23:46:00.320Z,9.50
2023-03-29T23:48:27.222Z,9.48
2023-03-29T23:50:56.358Z,9.47
2023-03-29T23:53:23.171Z,9.44
2023-03-29T23:55:49.979Z,9.36
2023-03-29T23:58:16.807Z,9.37
